createdAt,value
2018-08-04T05:05:32.219Z,12.47
2018-08-04T05:10:36.320Z,13.83
2018-08-04T05:15:39.651Z,12.67
2018-08-04T05:20:43.003Z,13.17
2018-08-04T05:25:46.338Z,12.90
2018-08-04T05:30:49.671Z,9.80
2018-08-04T05:36:14.735Z,12.20
2018-08-04T05:41:18.833Z,14.20
2018-08-04T05:46:22.189Z,12.50
2018-08-04T05:51:25.532Z,14.10
2018-08-04T05:56:28.863Z,17.17
2018-08-04T06:01:32.201Z,15.83
2018-08-04T06:06:38.258Z,16.70
2018-08-04T06:11:41.609Z,15.17
2018-08-04T06:16:45.714Z,18.60
2018-08-04T06:21:49.057Z,19.00
2018-08-04T06:26:52.401Z,19.77
2018-08-04T06:31:55.737Z,18.27
2018-08-04T06:36:59.074Z,17.67
2018-08-04T06:42:03.178Z,11.67
2018-08-04T06:47:06.539Z,13.93
2018-08-04T06:52:09.874Z,13.97
2018-08-04T06:57:13.290Z,11.17
2018-08-04T07:02:16.654Z,10.70
2018-08-04T07:07:35.635Z,17.90
2018-08-04T07:12:39.769Z,15.20
2018-08-04T07:17:44.205Z,12.40
2018-08-04T07:22:47.581Z,13.67
2018-08-04T07:27:50.904Z,12.20
2018-08-04T07:32:54.234Z,12.53
2018-08-04T07:37:57.579Z,12.20
2018-08-04T07:43:01.687Z,13.03
2018-08-04T07:48:05.798Z,15.10
2018-08-04T07:53:09.321Z,13.97
2018-08-04T07:58:12.806Z,16.10
2018-08-04T08:03:16.147Z,15.30
2018-08-04T08:08:19.503Z,14.13
2018-08-04T08:13:22.846Z,11.33
2018-08-04T08:18:26.182Z,14.77
2018-08-04T08:23:29.519Z,15.77
2018-08-04T08:28:33.694Z,12.87
2018-08-04T08:33:41.928Z,13.67
2018-08-04T08:38:45.294Z,14.47
2018-08-04T08:43:48.647Z,10.77
2018-08-04T08:48:51.983Z,9.57
2018-08-04T08:53:55.430Z,11.20
2018-08-04T08:58:58.667Z,10.10
2018-08-04T09:04:02.005Z,11.40
2018-08-04T09:09:05.423Z,12.40
2018-08-04T09:14:08.755Z,8.80
2018-08-04T09:19:12.085Z,12.13
2018-08-04T09:24:15.422Z,8.60
2018-08-04T09:29:19.531Z,9.03
2018-08-04T09:34:22.876Z,10.60
2018-08-04T09:39:26.223Z,9.10
2018-08-04T09:44:29.546Z,7.90
2018-08-04T09:49:32.885Z,9.00
2018-08-04T09:54:36.218Z,7.73
2018-08-04T09:59:39.567Z,9.83
2018-08-04T10:04:42.894Z,10.43
2018-08-04T10:09:46.234Z,9.70
2018-08-04T10:14:50.338Z,7.67
2018-08-04T10:19:53.681Z,8.60
2018-08-04T10:25:17.376Z,8.57
2018-08-04T10:30:20.706Z,7.37
2018-08-04T10:35:24.035Z,6.73
2018-08-04T10:40:27.362Z,9.30
2018-08-04T10:45:30.699Z,6.82
2018-08-04T10:50:34.062Z,6.60
2018-08-04T10:55:37.399Z,8.07
2018-08-04T11:00:40.757Z,5.97
2018-08-04T11:05:44.855Z,6.90
2018-08-04T11:10:48.194Z,6.30
2018-08-04T11:16:06.851Z,6.22
2018-08-04T11:21:10.211Z,5.95
2018-08-04T11:26:19.484Z,5.28
2018-08-04T11:31:22.815Z,6.43
2018-08-04T11:36:26.157Z,6.10
2018-08-04T11:41:30.258Z,4.87
2018-08-04T11:46:33.601Z,6.07
2018-08-04T11:51:37.727Z,4.90
2018-08-04T11:56:42.738Z,6.62
2018-08-04T12:01:46.062Z,5.57
2018-08-04T12:06:49.402Z,5.32
2018-08-04T12:11:53.506Z,5.57
2018-08-04T12:16:56.912Z,4.05
2018-08-04T12:22:00.243Z,4.22
2018-08-04T12:27:03.618Z,5.87
2018-08-04T12:32:06.953Z,4.60
2018-08-04T12:37:10.281Z,3.80
2018-08-04T12:42:14.304Z,4.68
2018-08-04T12:47:17.625Z,5.32
2018-08-04T12:52:20.972Z,4.62
2018-08-04T12:57:24.321Z,5.80
2018-08-04T13:02:27.724Z,4.35
2018-08-04T13:07:31.058Z,5.35
2018-08-04T13:12:34.414Z,5.32
2018-08-04T13:17:38.567Z,4.87
2018-08-04T13:22:41.898Z,6.22
2018-08-04T13:27:45.241Z,5.05
2018-08-04T13:32:48.606Z,4.22
2018-08-04T13:37:51.948Z,4.55
2018-08-04T13:42:55.323Z,5.90
2018-08-04T13:47:58.687Z,5.87
2018-08-04T13:53:02.016Z,5.80
2018-08-04T13:58:06.112Z,5.35
2018-08-04T14:03:09.433Z,5.75
2018-08-04T14:08:12.938Z,5.07
2018-08-04T14:13:16.272Z,5.32
2018-08-04T14:18:19.871Z,6.53
2018-08-04T14:23:26.763Z,5.05
2018-08-04T14:33:38.927Z,5.50
2018-08-04T14:38:43.021Z,5.22
2018-08-04T14:43:46.714Z,5.28
2018-08-04T14:48:53.121Z,5.10
2018-08-04T14:53:57.608Z,5.07
2018-08-04T14:59:02.101Z,5.10
2018-08-04T15:04:07.102Z,4.80
2018-08-04T15:09:10.664Z,5.55
2018-08-04T15:14:14.026Z,5.20
2018-08-04T15:19:17.567Z,5.07
2018-08-04T15:24:21.750Z,4.68
2018-08-04T15:29:25.316Z,4.90
2018-08-04T15:34:29.563Z,4.80
2018-08-04T15:39:32.910Z,5.28
2018-08-04T15:44:36.253Z,5.40
2018-08-04T15:49:39.588Z,5.75
2018-08-04T15:54:42.918Z,5.57
2018-08-04T15:59:47.007Z,5.68
2018-08-04T16:04:50.342Z,4.93
2018-08-04T16:09:53.775Z,5.40
2018-08-04T16:14:57.883Z,5.45
2018-08-04T16:20:01.213Z,5.12
2018-08-04T16:25:06.218Z,5.68
2018-08-04T16:30:09.546Z,6.50
2018-08-04T16:35:12.876Z,5.70
2018-08-04T16:40:16.212Z,5.65
2018-08-04T16:45:20.312Z,4.80
2018-08-04T16:50:23.658Z,5.12
2018-08-04T16:55:27.007Z,5.37
2018-08-04T17:00:30.347Z,5.68
2018-08-04T17:05:45.502Z,5.32
2018-08-04T17:10:48.826Z,5.00
2018-08-04T17:15:52.164Z,5.25
2018-08-04T17:20:55.503Z,5.50
2018-08-04T17:25:59.595Z,4.28
2018-08-04T17:31:02.926Z,3.92
2018-08-04T17:36:24.791Z,4.30
2018-08-04T17:41:28.424Z,6.12
2018-08-04T17:46:32.925Z,4.70
2018-08-04T17:51:36.267Z,6.22
2018-08-04T17:56:42.306Z,6.07
2018-08-04T18:01:45.642Z,5.85
2018-08-04T18:06:49.743Z,6.03
2018-08-04T18:11:53.076Z,5.68
2018-08-04T18:16:56.405Z,4.93
2018-08-04T18:22:00.495Z,6.00
2018-08-04T18:27:03.839Z,5.93
2018-08-04T18:32:07.935Z,6.25
2018-08-04T18:37:13.895Z,5.45
2018-08-04T18:42:17.228Z,5.45
2018-08-04T18:47:20.562Z,6.10
2018-08-04T18:52:24.673Z,6.78
2018-08-04T18:57:28.038Z,5.47
2018-08-04T19:02:31.373Z,7.15
2018-08-04T19:07:34.717Z,6.30
2018-08-04T19:12:38.046Z,6.65
2018-08-04T19:17:42.139Z,6.85
2018-08-04T19:22:45.480Z,7.22
2018-08-04T19:27:48.834Z,6.45
2018-08-04T19:32:52.165Z,6.50
2018-08-04T19:37:55.487Z,6.20
2018-08-04T19:42:58.822Z,6.95
2018-08-04T19:48:02.185Z,7.80
2018-08-04T19:53:05.522Z,8.63
2018-08-04T19:58:08.850Z,7.93
2018-08-04T20:03:12.187Z,7.22
2018-08-04T20:08:15.530Z,6.87
2018-08-04T20:13:18.862Z,8.35
2018-08-04T20:18:22.191Z,9.57
2018-08-04T20:23:25.529Z,9.05
2018-08-04T20:28:28.880Z,9.75
2018-08-04T20:33:32.219Z,10.18
2018-08-04T20:38:35.562Z,8.55
2018-08-04T20:43:38.917Z,9.63
2018-08-04T20:48:42.286Z,8.80
2018-08-04T20:53:46.697Z,9.15
2018-08-04T20:58:50.177Z,8.52
2018-08-04T21:03:53.523Z,7.90
2018-08-04T21:08:56.879Z,8.23
2018-08-04T21:14:00.666Z,8.05
2018-08-04T21:19:04.209Z,10.18
2018-08-04T21:24:07.558Z,10.45
2018-08-04T21:29:10.888Z,12.63
2018-08-04T21:34:14.466Z,11.15
2018-08-04T21:39:19.629Z,10.05
2018-08-04T21:44:23.939Z,10.35
2018-08-04T21:49:27.332Z,10.55
2018-08-04T21:54:30.684Z,10.77
2018-08-04T21:59:34.787Z,11.67
2018-08-04T22:04:38.126Z,12.33
2018-08-04T22:09:42.234Z,11.23
2018-08-04T22:14:47.607Z,10.97
2018-08-04T22:19:50.937Z,9.43
2018-08-04T22:24:55.032Z,11.67
2018-08-04T22:29:58.421Z,11.13
